sensor_id;sensor_type;location;lat;lon;timestamp;P1;durP1;ratioP1;P2;durP2;ratioP2
36501;SDS011;25393;46.108;3.390;2022-08-18T04:52:50;13.27;;;3.65;;
36501;SDS011;25393;46.108;3.390;2022-08-18T04:55:38;9.05;;;3.60;;
36501;SDS011;25393;46.108;3.390;2022-08-18T04:58:27;5.38;;;2.90;;
36501;SDS011;25393;46.108;3.390;2022-08-18T05:00:58;8.30;;;3.08;;
36501;SDS011;25393;46.108;3.390;2022-08-18T05:03:26;4.22;;;3.53;;
36501;SDS011;25393;46.108;3.390;2022-08-18T05:05:53;3.88;;;3.15;;
36501;SDS011;25393;46.108;3.390;2022-08-18T05:08:21;12.07;;;3.63;;
36501;SDS011;25393;46.108;3.390;2022-08-18T05:10:54;5.10;;;3.20;;
36501;SDS011;25393;46.108;3.390;2022-08-18T05:13:29;6.50;;;3.58;;
36501;SDS011;25393;46.108;3.390;2022-08-18T05:15:56;4.20;;;2.85;;
36501;SDS011;25393;46.108;3.390;2022-08-18T05:18:44;3.90;;;2.83;;
36501;SDS011;25393;46.108;3.390;2022-08-18T05:21:20;3.58;;;2.97;;
36501;SDS011;25393;46.108;3.390;2022-08-18T05:23:49;9.77;;;3.50;;
36501;SDS011;25393;46.108;3.390;2022-08-18T05:26:17;5.70;;;2.67;;
36501;SDS011;25393;46.108;3.390;2022-08-18T05:29:02;3.65;;;2.67;;
36501;SDS011;25393;46.108;3.390;2022-08-18T05:31:44;4.70;;;3.47;;
36501;SDS011;25393;46.108;3.390;2022-08-18T05:34:11;6.45;;;3.65;;
36501;SDS011;25393;46.108;3.390;2022-08-18T05:41:51;5.75;;;4.00;;
36501;SDS011;25393;46.108;3.390;2022-08-18T05:44:25;9.85;;;4.50;;
36501;SDS011;25393;46.108;3.390;2022-08-18T05:46:54;7.88;;;3.70;;
36501;SDS011;25393;46.108;3.390;2022-08-18T05:49:25;6.63;;;3.75;;
36501;SDS011;25393;46.108;3.390;2022-08-18T05:52:00;3.85;;;2.78;;
36501;SDS011;25393;46.108;3.390;2022-08-18T05:54:37;6.53;;;3.72;;
36501;SDS011;25393;46.108;3.390;2022-08-18T05:57:32;6.10;;;3.08;;
36501;SDS011;25393;46.108;3.390;2022-08-18T06:00:08;7.20;;;3.85;;
36501;SDS011;25393;46.108;3.390;2022-08-18T06:03:20;8.93;;;3.28;;
36501;SDS011;25393;46.108;3.390;2022-08-18T06:05:50;4.22;;;3.55;;
36501;SDS011;25393;46.108;3.390;2022-08-18T06:08:20;8.07;;;3.40;;
36501;SDS011;25393;46.108;3.390;2022-08-18T06:10:53;8.02;;;3.90;;
36501;SDS011;25393;46.108;3.390;2022-08-18T06:13:20;5.18;;;3.70;;
36501;SDS011;25393;46.108;3.390;2022-08-18T06:18:55;9.93;;;4.57;;
36501;SDS011;25393;46.108;3.390;2022-08-18T06:21:27;6.72;;;3.50;;
36501;SDS011;25393;46.108;3.390;2022-08-18T06:24:24;6.10;;;4.90;;
36501;SDS011;25393;46.108;3.390;2022-08-18T06:27:50;7.05;;;3.60;;
36501;SDS011;25393;46.108;3.390;2022-08-18T06:30:00;8.68;;;3.50;;
36501;SDS011;25393;46.108;3.390;2022-08-18T06:44:07;5.75;;;5.25;;
36501;SDS011;25393;46.108;3.390;2022-08-18T06:49:14;5.82;;;5.13;;
36501;SDS011;25393;46.108;3.390;2022-08-18T06:51:50;8.02;;;5.53;;
36501;SDS011;25393;46.108;3.390;2022-08-18T06:56:45;6.63;;;5.97;;
36501;SDS011;25393;46.108;3.390;2022-08-18T07:02:01;10.88;;;5.93;;
36501;SDS011;25393;46.108;3.390;2022-08-18T07:04:57;5.32;;;4.40;;
36501;SDS011;25393;46.108;3.390;2022-08-18T07:07:37;5.95;;;5.45;;
36501;SDS011;25393;46.108;3.390;2022-08-18T07:12:38;5.70;;;5.03;;
36501;SDS011;25393;46.108;3.390;2022-08-18T07:15:05;4.70;;;3.92;;
36501;SDS011;25393;46.108;3.390;2022-08-18T07:17:34;5.82;;;4.45;;
36501;SDS011;25393;46.108;3.390;2022-08-18T07:20:22;4.25;;;3.95;;
36501;SDS011;25393;46.108;3.390;2022-08-18T07:25:29;5.88;;;4.40;;
36501;SDS011;25393;46.108;3.390;2022-08-18T07:27:57;6.15;;;5.55;;
36501;SDS011;25393;46.108;3.390;2022-08-18T07:30:29;5.68;;;5.18;;
36501;SDS011;25393;46.108;3.390;2022-08-18T07:35:50;8.02;;;6.75;;
36501;SDS011;25393;46.108;3.390;2022-08-18T07:41:15;12.45;;;6.25;;
36501;SDS011;25393;46.108;3.390;2022-08-18T07:49:04;7.50;;;6.80;;
36501;SDS011;25393;46.108;3.390;2022-08-18T07:57:26;8.30;;;6.93;;
36501;SDS011;25393;46.108;3.390;2022-08-18T08:00:15;13.20;;;7.30;;
36501;SDS011;25393;46.108;3.390;2022-08-18T08:04:28;8.60;;;7.70;;
36501;SDS011;25393;46.108;3.390;2022-08-18T08:06:36;8.23;;;7.47;;
36501;SDS011;25393;46.108;3.390;2022-08-18T08:12:56;7.38;;;6.75;;
36501;SDS011;25393;46.108;3.390;2022-08-18T08:21:08;8.90;;;6.22;;
36501;SDS011;25393;46.108;3.390;2022-08-18T08:23:57;8.48;;;7.22;;
36501;SDS011;25393;46.108;3.390;2022-08-18T08:27:01;10.02;;;6.85;;
36501;SDS011;25393;46.108;3.390;2022-08-18T08:32:10;6.88;;;5.22;;
36501;SDS011;25393;46.108;3.390;2022-08-18T08:37:15;5.65;;;5.10;;
36501;SDS011;25393;46.108;3.390;2022-08-18T08:39:49;4.53;;;4.07;;
36501;SDS011;25393;46.108;3.390;2022-08-18T08:42:40;4.18;;;3.80;;
36501;SDS011;25393;46.108;3.390;2022-08-18T08:45:37;5.97;;;4.10;;
36501;SDS011;25393;46.108;3.390;2022-08-18T08:48:12;4.03;;;3.72;;
36501;SDS011;25393;46.108;3.390;2022-08-18T08:50:51;6.45;;;3.88;;
36501;SDS011;25393;46.108;3.390;2022-08-18T08:53:41;4.47;;;4.00;;
36501;SDS011;25393;46.108;3.390;2022-08-18T08:56:13;9.25;;;3.97;;
36501;SDS011;25393;46.108;3.390;2022-08-18T08:58:47;4.15;;;3.83;;
36501;SDS011;25393;46.108;3.390;2022-08-18T09:01:29;3.90;;;3.60;;
36501;SDS011;25393;46.108;3.390;2022-08-18T09:04:17;9.70;;;4.07;;
36501;SDS011;25393;46.108;3.390;2022-08-18T09:13:28;10.02;;;4.10;;
36501;SDS011;25393;46.108;3.390;2022-08-18T09:16:14;6.07;;;4.07;;
36501;SDS011;25393;46.108;3.390;2022-08-18T09:22:14;4.35;;;3.95;;
36501;SDS011;25393;46.108;3.390;2022-08-18T09:24:45;7.50;;;3.40;;
36501;SDS011;25393;46.108;3.390;2022-08-18T09:31:14;3.85;;;3.53;;
36501;SDS011;25393;46.108;3.390;2022-08-18T09:39:08;12.55;;;4.30;;
36501;SDS011;25393;46.108;3.390;2022-08-18T09:42:32;4.55;;;3.90;;
36501;SDS011;25393;46.108;3.390;2022-08-18T09:50:33;3.97;;;3.67;;
36501;SDS011;25393;46.108;3.390;2022-08-18T09:53:14;5.18;;;3.80;;
36501;SDS011;25393;46.108;3.390;2022-08-18T09:55:58;10.98;;;3.53;;
36501;SDS011;25393;46.108;3.390;2022-08-18T10:06:40;4.70;;;4.00;;
36501;SDS011;25393;46.108;3.390;2022-08-18T10:37:17;4.43;;;3.50;;
36501;SDS011;25393;46.108;3.390;2022-08-18T10:39:52;12.10;;;3.70;;
36501;SDS011;25393;46.108;3.390;2022-08-18T10:42:24;6.50;;;3.85;;
36501;SDS011;25393;46.108;3.390;2022-08-18T10:45:52;4.38;;;3.50;;
36501;SDS011;25393;46.108;3.390;2022-08-18T10:51:32;5.78;;;3.75;;
36501;SDS011;25393;46.108;3.390;2022-08-18T10:53:57;3.60;;;3.30;;
36501;SDS011;25393;46.108;3.390;2022-08-18T10:56:46;5.00;;;3.50;;
36501;SDS011;25393;46.108;3.390;2022-08-18T10:59:24;8.95;;;3.70;;
36501;SDS011;25393;46.108;3.390;2022-08-18T11:02:00;5.20;;;4.57;;
36501;SDS011;25393;46.108;3.390;2022-08-18T11:04:36;3.60;;;3.30;;
36501;SDS011;25393;46.108;3.390;2022-08-18T11:07:25;4.60;;;3.60;;
36501;SDS011;25393;46.108;3.390;2022-08-18T11:10:18;5.63;;;3.53;;
36501;SDS011;25393;46.108;3.390;2022-08-18T11:13:31;5.00;;;3.92;;
36501;SDS011;25393;46.108;3.390;2022-08-18T11:16:13;5.80;;;4.13;;
36501;SDS011;25393;46.108;3.390;2022-08-18T11:18:47;3.90;;;3.60;;
36501;SDS011;25393;46.108;3.390;2022-08-18T11:21:33;9.40;;;3.63;;
36501;SDS011;25393;46.108;3.390;2022-08-18T11:26:37;4.35;;;3.33;;
36501;SDS011;25393;46.108;3.390;2022-08-18T11:29:34;9.30;;;3.17;;
36501;SDS011;25393;46.108;3.390;2022-08-18T11:32:06;6.65;;;3.35;;
36501;SDS011;25393;46.108;3.390;2022-08-18T11:37:44;4.80;;;3.63;;
36501;SDS011;25393;46.108;3.390;2022-08-18T11:43:12;3.33;;;3.13;;
36501;SDS011;25393;46.108;3.390;2022-08-18T11:45:52;3.40;;;3.10;;
36501;SDS011;25393;46.108;3.390;2022-08-18T11:56:25;5.45;;;3.38;;
36501;SDS011;25393;46.108;3.390;2022-08-18T12:09:15;4.35;;;3.15;;
36501;SDS011;25393;46.108;3.390;2022-08-18T12:12:12;4.40;;;3.35;;
36501;SDS011;25393;46.108;3.390;2022-08-18T12:14:54;4.93;;;3.25;;
36501;SDS011;25393;46.108;3.390;2022-08-18T12:17:43;4.25;;;3.40;;
36501;SDS011;25393;46.108;3.390;2022-08-18T12:20:31;3.75;;;3.55;;
36501;SDS011;25393;46.108;3.390;2022-08-18T12:22:57;4.30;;;4.00;;
36501;SDS011;25393;46.108;3.390;2022-08-18T12:25:27;3.47;;;3.22;;
36501;SDS011;25393;46.108;3.390;2022-08-18T12:27:54;4.35;;;3.42;;
36501;SDS011;25393;46.108;3.390;2022-08-18T12:30:20;9.55;;;3.60;;
36501;SDS011;25393;46.108;3.390;2022-08-18T12:32:48;5.03;;;3.60;;
36501;SDS011;25393;46.108;3.390;2022-08-18T12:35:26;3.92;;;3.58;;
36501;SDS011;25393;46.108;3.390;2022-08-18T12:37:52;3.70;;;3.42;;
36501;SDS011;25393;46.108;3.390;2022-08-18T12:40:28;4.38;;;3.78;;
36501;SDS011;25393;46.108;3.390;2022-08-18T12:42:55;3.45;;;3.25;;
36501;SDS011;25393;46.108;3.390;2022-08-18T12:45:26;3.38;;;3.10;;
36501;SDS011;25393;46.108;3.390;2022-08-18T12:47:54;5.05;;;3.60;;
36501;SDS011;25393;46.108;3.390;2022-08-18T12:50:20;4.65;;;3.40;;
36501;SDS011;25393;46.108;3.390;2022-08-18T12:53:07;3.88;;;3.28;;
36501;SDS011;25393;46.108;3.390;2022-08-18T12:55:36;3.30;;;3.10;;
36501;SDS011;25393;46.108;3.390;2022-08-18T12:58:27;3.60;;;3.30;;
36501;SDS011;25393;46.108;3.390;2022-08-18T13:00:54;3.60;;;3.30;;
36501;SDS011;25393;46.108;3.390;2022-08-18T13:03:22;3.70;;;3.40;;
36501;SDS011;25393;46.108;3.390;2022-08-18T13:05:52;7.75;;;3.83;;
36501;SDS011;25393;46.108;3.390;2022-08-18T13:08:20;6.10;;;3.60;;
36501;SDS011;25393;46.108;3.390;2022-08-18T13:10:58;4.22;;;3.80;;
36501;SDS011;25393;46.108;3.390;2022-08-18T13:13:40;4.13;;;3.83;;
36501;SDS011;25393;46.108;3.390;2022-08-18T13:16:08;5.57;;;3.72;;
36501;SDS011;25393;46.108;3.390;2022-08-18T13:18:41;5.18;;;3.60;;
36501;SDS011;25393;46.108;3.390;2022-08-18T13:21:09;4.65;;;3.70;;
36501;SDS011;25393;46.108;3.390;2022-08-18T13:23:37;7.32;;;3.60;;
36501;SDS011;25393;46.108;3.390;2022-08-18T13:26:06;5.68;;;3.33;;
36501;SDS011;25393;46.108;3.390;2022-08-18T13:28:35;3.83;;;3.35;;
36501;SDS011;25393;46.108;3.390;2022-08-18T13:31:25;3.60;;;3.30;;
36501;SDS011;25393;46.108;3.390;2022-08-18T13:33:58;3.53;;;3.30;;
36501;SDS011;25393;46.108;3.390;2022-08-18T13:36:29;5.43;;;3.78;;
36501;SDS011;25393;46.108;3.390;2022-08-18T13:39:15;6.13;;;3.83;;
36501;SDS011;25393;46.108;3.390;2022-08-18T13:41:47;3.72;;;3.45;;
36501;SDS011;25393;46.108;3.390;2022-08-18T13:44:18;4.15;;;3.75;;
36501;SDS011;25393;46.108;3.390;2022-08-18T13:46:52;4.05;;;3.70;;
36501;SDS011;25393;46.108;3.390;2022-08-18T13:49:22;4.63;;;3.92;;
36501;SDS011;25393;46.108;3.390;2022-08-18T13:51:56;4.40;;;3.80;;
36501;SDS011;25393;46.108;3.390;2022-08-18T13:54:33;5.28;;;3.70;;
36501;SDS011;25393;46.108;3.390;2022-08-18T13:57:01;4.10;;;3.70;;
36501;SDS011;25393;46.108;3.390;2022-08-18T13:59:29;4.30;;;3.90;;
36501;SDS011;25393;46.108;3.390;2022-08-18T14:02:00;5.35;;;3.30;;
36501;SDS011;25393;46.108;3.390;2022-08-18T14:04:29;7.10;;;3.65;;
36501;SDS011;25393;46.108;3.390;2022-08-18T14:07:01;4.30;;;3.78;;
36501;SDS011;25393;46.108;3.390;2022-08-18T14:09:35;3.83;;;3.42;;
36501;SDS011;25393;46.108;3.390;2022-08-18T14:12:04;3.65;;;3.45;;
36501;SDS011;25393;46.108;3.390;2022-08-18T14:14:47;4.47;;;4.00;;
36501;SDS011;25393;46.108;3.390;2022-08-18T14:17:17;5.15;;;3.80;;
36501;SDS011;25393;46.108;3.390;2022-08-18T14:19:44;4.50;;;3.67;;
36501;SDS011;25393;46.108;3.390;2022-08-18T14:22:35;4.03;;;3.65;;
36501;SDS011;25393;46.108;3.390;2022-08-18T14:25:20;3.95;;;3.53;;
36501;SDS011;25393;46.108;3.390;2022-08-18T14:28:09;3.72;;;3.45;;
36501;SDS011;25393;46.108;3.390;2022-08-18T14:30:37;8.85;;;3.17;;
36501;SDS011;25393;46.108;3.390;2022-08-18T14:33:05;13.00;;;4.85;;
36501;SDS011;25393;46.108;3.390;2022-08-18T14:35:36;13.18;;;3.85;;
36501;SDS011;25393;46.108;3.390;2022-08-18T14:38:23;4.25;;;3.47;;
36501;SDS011;25393;46.108;3.390;2022-08-18T14:40:50;7.10;;;3.80;;
36501;SDS011;25393;46.108;3.390;2022-08-18T14:43:18;9.02;;;4.00;;
36501;SDS011;25393;46.108;3.390;2022-08-18T14:45:50;5.88;;;4.10;;
36501;SDS011;25393;46.108;3.390;2022-08-18T14:48:23;9.38;;;4.35;;
36501;SDS011;25393;46.108;3.390;2022-08-18T14:50:53;5.53;;;3.70;;
36501;SDS011;25393;46.108;3.390;2022-08-18T14:53:23;4.88;;;3.75;;
36501;SDS011;25393;46.108;3.390;2022-08-18T14:55:52;4.15;;;3.75;;
36501;SDS011;25393;46.108;3.390;2022-08-18T14:58:21;6.47;;;4.38;;
36501;SDS011;25393;46.108;3.390;2022-08-18T15:01:00;5.82;;;4.22;;
36501;SDS011;25393;46.108;3.390;2022-08-18T15:03:34;5.65;;;4.35;;
36501;SDS011;25393;46.108;3.390;2022-08-18T15:06:02;4.70;;;4.30;;
36501;SDS011;25393;46.108;3.390;2022-08-18T15:08:33;7.40;;;4.72;;
36501;SDS011;25393;46.108;3.390;2022-08-18T15:11:03;6.78;;;4.50;;
36501;SDS011;25393;46.108;3.390;2022-08-18T15:13:38;8.52;;;4.55;;
36501;SDS011;25393;46.108;3.390;2022-08-18T15:16:06;8.13;;;5.07;;
36501;SDS011;25393;46.108;3.390;2022-08-18T15:18:39;5.95;;;4.97;;
36501;SDS011;25393;46.108;3.390;2022-08-18T15:21:08;5.75;;;4.82;;
36501;SDS011;25393;46.108;3.390;2022-08-18T15:24:04;8.60;;;5.28;;
36501;SDS011;25393;46.108;3.390;2022-08-18T15:26:51;6.22;;;5.57;;
36501;SDS011;25393;46.108;3.390;2022-08-18T15:29:31;6.15;;;4.70;;
36501;SDS011;25393;46.108;3.390;2022-08-18T15:32:00;6.28;;;5.05;;
36501;SDS011;25393;46.108;3.390;2022-08-18T15:34:35;7.57;;;5.50;;
36501;SDS011;25393;46.108;3.390;2022-08-18T15:37:16;9.40;;;5.53;;
36501;SDS011;25393;46.108;3.390;2022-08-18T15:39:45;6.35;;;5.57;;
36501;SDS011;25393;46.108;3.390;2022-08-18T15:42:20;6.03;;;5.53;;
36501;SDS011;25393;46.108;3.390;2022-08-18T15:44:55;6.07;;;5.40;;
36501;SDS011;25393;46.108;3.390;2022-08-18T15:47:39;7.38;;;5.43;;
36501;SDS011;25393;46.108;3.390;2022-08-18T15:50:07;6.50;;;5.28;;
36501;SDS011;25393;46.108;3.390;2022-08-18T15:52:53;6.25;;;5.20;;
36501;SDS011;25393;46.108;3.390;2022-08-18T15:55:25;5.97;;;5.00;;
36501;SDS011;25393;46.108;3.390;2022-08-18T15:58:02;7.07;;;5.35;;
36501;SDS011;25393;46.108;3.390;2022-08-18T16:00:36;5.68;;;5.20;;
36501;SDS011;25393;46.108;3.390;2022-08-18T16:03:09;5.65;;;5.05;;
36501;SDS011;25393;46.108;3.390;2022-08-18T16:05:44;5.78;;;4.93;;
36501;SDS011;25393;46.108;3.390;2022-08-18T16:08:15;7.63;;;4.60;;
36501;SDS011;25393;46.108;3.390;2022-08-18T16:10:43;7.15;;;4.75;;
36501;SDS011;25393;46.108;3.390;2022-08-18T16:13:11;5.05;;;4.43;;
36501;SDS011;25393;46.108;3.390;2022-08-18T16:15:40;4.55;;;4.25;;
36501;SDS011;25393;46.108;3.390;2022-08-18T16:18:12;6.88;;;5.00;;
36501;SDS011;25393;46.108;3.390;2022-08-18T16:20:41;5.40;;;4.70;;
36501;SDS011;25393;46.108;3.390;2022-08-18T16:23:12;5.57;;;4.93;;
36501;SDS011;25393;46.108;3.390;2022-08-18T16:25:40;7.10;;;5.28;;
36501;SDS011;25393;46.108;3.390;2022-08-18T16:28:08;4.95;;;4.50;;
36501;SDS011;25393;46.108;3.390;2022-08-18T16:30:38;5.45;;;4.30;;
36501;SDS011;25393;46.108;3.390;2022-08-18T16:33:06;6.18;;;4.55;;
36501;SDS011;25393;46.108;3.390;2022-08-18T16:35:33;6.20;;;4.60;;
36501;SDS011;25393;46.108;3.390;2022-08-18T16:38:03;5.60;;;4.78;;
36501;SDS011;25393;46.108;3.390;2022-08-18T16:40:34;8.38;;;4.75;;
36501;SDS011;25393;46.108;3.390;2022-08-18T16:43:02;7.72;;;4.00;;
36501;SDS011;25393;46.108;3.390;2022-08-18T16:45:36;7.28;;;4.38;;
36501;SDS011;25393;46.108;3.390;2022-08-18T16:48:05;6.97;;;4.10;;
36501;SDS011;25393;46.108;3.390;2022-08-18T16:50:33;8.38;;;4.20;;
36501;SDS011;25393;46.108;3.390;2022-08-18T16:53:03;5.85;;;3.85;;
36501;SDS011;25393;46.108;3.390;2022-08-18T16:55:30;6.28;;;3.70;;
36501;SDS011;25393;46.108;3.390;2022-08-18T16:57:59;6.05;;;4.10;;
36501;SDS011;25393;46.108;3.390;2022-08-18T17:00:44;7.85;;;7.30;;
36501;SDS011;25393;46.108;3.390;2022-08-18T17:03:29;4.45;;;3.63;;
36501;SDS011;25393;46.108;3.390;2022-08-18T17:06:17;4.72;;;3.47;;
36501;SDS011;25393;46.108;3.390;2022-08-18T17:08:45;5.65;;;3.72;;
36501;SDS011;25393;46.108;3.390;2022-08-18T17:11:13;8.13;;;4.05;;
36501;SDS011;25393;46.108;3.390;2022-08-18T17:13:46;4.63;;;4.32;;
36501;SDS011;25393;46.108;3.390;2022-08-18T17:16:14;8.45;;;4.70;;
36501;SDS011;25393;46.108;3.390;2022-08-18T17:18:43;7.70;;;4.55;;
36501;SDS011;25393;46.108;3.390;2022-08-18T17:21:11;7.95;;;5.65;;
36501;SDS011;25393;46.108;3.390;2022-08-18T17:23:41;9.00;;;4.78;;
36501;SDS011;25393;46.108;3.390;2022-08-18T17:26:09;8.00;;;4.95;;
36501;SDS011;25393;46.108;3.390;2022-08-18T17:28:49;4.78;;;4.38;;
36501;SDS011;25393;46.108;3.390;2022-08-18T17:31:21;7.18;;;4.10;;
36501;SDS011;25393;46.108;3.390;2022-08-18T17:33:50;7.43;;;4.15;;
36501;SDS011;25393;46.108;3.390;2022-08-18T17:36:22;5.50;;;4.47;;
36501;SDS011;25393;46.108;3.390;2022-08-18T17:39:00;5.90;;;4.57;;
36501;SDS011;25393;46.108;3.390;2022-08-18T17:41:30;6.28;;;4.40;;
36501;SDS011;25393;46.108;3.390;2022-08-18T17:44:22;4.82;;;4.43;;
36501;SDS011;25393;46.108;3.390;2022-08-18T17:46:56;5.50;;;4.40;;
36501;SDS011;25393;46.108;3.390;2022-08-18T17:49:30;10.13;;;4.68;;
36501;SDS011;25393;46.108;3.390;2022-08-18T17:52:42;7.13;;;4.72;;
36501;SDS011;25393;46.108;3.390;2022-08-18T17:58:40;4.68;;;4.28;;
36501;SDS011;25393;46.108;3.390;2022-08-18T18:01:13;4.68;;;4.28;;
36501;SDS011;25393;46.108;3.390;2022-08-18T18:03:41;6.13;;;4.22;;
36501;SDS011;25393;46.108;3.390;2022-08-18T18:06:12;5.88;;;4.05;;
36501;SDS011;25393;46.108;3.390;2022-08-18T18:08:54;6.28;;;4.57;;
36501;SDS011;25393;46.108;3.390;2022-08-18T18:11:28;5.30;;;4.93;;
36501;SDS011;25393;46.108;3.390;2022-08-18T18:13:58;10.50;;;4.95;;
36501;SDS011;25393;46.108;3.390;2022-08-18T18:16:32;5.57;;;4.70;;
36501;SDS011;25393;46.108;3.390;2022-08-18T18:19:06;5.68;;;4.53;;
36501;SDS011;25393;46.108;3.390;2022-08-18T18:21:38;5.03;;;4.30;;
36501;SDS011;25393;46.108;3.390;2022-08-18T18:24:30;10.40;;;4.65;;
36501;SDS011;25393;46.108;3.390;2022-08-18T18:27:00;8.70;;;4.20;;
36501;SDS011;25393;46.108;3.390;2022-08-18T18:29:30;4.47;;;4.07;;
36501;SDS011;25393;46.108;3.390;2022-08-18T18:32:21;5.05;;;4.55;;
36501;SDS011;25393;46.108;3.390;2022-08-18T18:37:43;5.03;;;4.28;;
36501;SDS011;25393;46.108;3.390;2022-08-18T18:40:21;4.60;;;4.20;;
36501;SDS011;25393;46.108;3.390;2022-08-18T18:42:56;6.05;;;4.40;;
36501;SDS011;25393;46.108;3.390;2022-08-18T18:45:54;4.43;;;4.10;;
36501;SDS011;25393;46.108;3.390;2022-08-18T18:48:25;7.93;;;4.43;;
36501;SDS011;25393;46.108;3.390;2022-08-18T18:51:22;7.10;;;4.22;;
36501;SDS011;25393;46.108;3.390;2022-08-18T18:57:08;9.30;;;4.18;;
36501;SDS011;25393;46.108;3.390;2022-08-18T19:03:01;6.18;;;4.57;;
36501;SDS011;25393;46.108;3.390;2022-08-18T19:13:50;4.40;;;3.95;;
36501;SDS011;25393;46.108;3.390;2022-08-18T19:16:26;11.88;;;4.40;;
36501;SDS011;25393;46.108;3.390;2022-08-18T19:18:58;8.63;;;4.60;;
36501;SDS011;25393;46.108;3.390;2022-08-18T19:22:00;5.60;;;4.18;;
36501;SDS011;25393;46.108;3.390;2022-08-18T19:24:38;6.45;;;4.63;;
36501;SDS011;25393;46.108;3.390;2022-08-18T19:27:16;7.88;;;4.63;;
36501;SDS011;25393;46.108;3.390;2022-08-18T19:29:49;5.22;;;4.60;;
36501;SDS011;25393;46.108;3.390;2022-08-18T19:32:23;5.32;;;4.97;;
36501;SDS011;25393;46.108;3.390;2022-08-18T19:34:56;4.90;;;4.50;;
36501;SDS011;25393;46.108;3.390;2022-08-18T19:37:31;6.43;;;5.25;;
36501;SDS011;25393;46.108;3.390;2022-08-18T19:40:19;5.82;;;5.28;;
36501;SDS011;25393;46.108;3.390;2022-08-18T19:43:05;5.60;;;4.80;;
36501;SDS011;25393;46.108;3.390;2022-08-18T19:48:37;5.35;;;4.93;;
36501;SDS011;25393;46.108;3.390;2022-08-18T19:51:21;5.10;;;4.80;;
36501;SDS011;25393;46.108;3.390;2022-08-18T19:53:58;6.97;;;4.85;;
36501;SDS011;25393;46.108;3.390;2022-08-18T20:13:25;5.80;;;5.28;;
36501;SDS011;25393;46.108;3.390;2022-08-18T20:18:28;7.20;;;5.05;;
36501;SDS011;25393;46.108;3.390;2022-08-18T20:23:36;6.65;;;5.93;;
36501;SDS011;25393;46.108;3.390;2022-08-18T20:29:04;6.50;;;5.90;;
36501;SDS011;25393;46.108;3.390;2022-08-18T20:31:45;7.10;;;6.57;;
36501;SDS011;25393;46.108;3.390;2022-08-18T20:34:19;6.88;;;6.22;;
36501;SDS011;25393;46.108;3.390;2022-08-18T20:36:48;6.80;;;6.28;;
36501;SDS011;25393;46.108;3.390;2022-08-18T20:39:35;9.00;;;5.60;;
36501;SDS011;25393;46.108;3.390;2022-08-18T20:42:05;6.50;;;5.88;;
36501;SDS011;25393;46.108;3.390;2022-08-18T20:58:15;11.57;;;6.05;;
36501;SDS011;25393;46.108;3.390;2022-08-18T21:00:53;5.60;;;5.13;;
36501;SDS011;25393;46.108;3.390;2022-08-18T21:03:32;7.47;;;5.20;;
36501;SDS011;25393;46.108;3.390;2022-08-18T21:06:00;5.68;;;5.25;;
36501;SDS011;25393;46.108;3.390;2022-08-18T21:08:30;8.13;;;5.32;;
36501;SDS011;25393;46.108;3.390;2022-08-18T21:10:59;6.88;;;5.75;;
36501;SDS011;25393;46.108;3.390;2022-08-18T21:15:56;5.03;;;4.72;;
36501;SDS011;25393;46.108;3.390;2022-08-18T21:18:24;5.60;;;5.20;;
36501;SDS011;25393;46.108;3.390;2022-08-18T21:20:55;5.55;;;5.00;;
36501;SDS011;25393;46.108;3.390;2022-08-18T21:23:26;5.78;;;5.32;;
36501;SDS011;25393;46.108;3.390;2022-08-18T21:26:02;5.93;;;5.28;;
36501;SDS011;25393;46.108;3.390;2022-08-18T21:28:36;5.90;;;5.25;;
36501;SDS011;25393;46.108;3.390;2022-08-18T21:31:06;6.15;;;5.60;;
36501;SDS011;25393;46.108;3.390;2022-08-18T21:34:13;4.90;;;4.60;;
36501;SDS011;25393;46.108;3.390;2022-08-18T21:36:56;5.82;;;5.40;;
36501;SDS011;25393;46.108;3.390;2022-08-18T21:39:23;6.43;;;5.85;;
36501;SDS011;25393;46.108;3.390;2022-08-18T21:41:52;5.68;;;5.25;;
36501;SDS011;25393;46.108;3.390;2022-08-18T21:44:22;7.90;;;5.65;;
36501;SDS011;25393;46.108;3.390;2022-08-18T21:47:02;7.80;;;5.18;;
36501;SDS011;25393;46.108;3.390;2022-08-18T21:50:00;8.13;;;5.75;;
36501;SDS011;25393;46.108;3.390;2022-08-18T21:52:34;6.45;;;5.45;;
36501;SDS011;25393;46.108;3.390;2022-08-18T21:55:05;8.50;;;5.93;;
36501;SDS011;25393;46.108;3.390;2022-08-18T21:57:47;5.93;;;5.43;;
36501;SDS011;25393;46.108;3.390;2022-08-18T22:00:26;6.68;;;6.13;;
36501;SDS011;25393;46.108;3.390;2022-08-18T22:05:45;6.10;;;5.30;;
36501;SDS011;25393;46.108;3.390;2022-08-18T22:08:30;7.35;;;5.18;;
36501;SDS011;25393;46.108;3.390;2022-08-18T22:11:33;6.22;;;5.10;;
36501;SDS011;25393;46.108;3.390;2022-08-18T22:14:29;6.10;;;5.70;;
36501;SDS011;25393;46.108;3.390;2022-08-18T22:19:50;5.68;;;5.18;;
36501;SDS011;25393;46.108;3.390;2022-08-18T22:22:17;5.55;;;5.15;;
36501;SDS011;25393;46.108;3.390;2022-08-18T22:25:05;6.03;;;5.30;;
36501;SDS011;25393;46.108;3.390;2022-08-18T22:27:33;5.60;;;5.20;;
36501;SDS011;25393;46.108;3.390;2022-08-18T22:30:00;5.80;;;5.32;;
36501;SDS011;25393;46.108;3.390;2022-08-18T22:32:31;6.00;;;5.50;;
36501;SDS011;25393;46.108;3.390;2022-08-18T22:35:01;5.78;;;5.43;;
36501;SDS011;25393;46.108;3.390;2022-08-18T22:37:30;5.47;;;5.07;;
36501;SDS011;25393;46.108;3.390;2022-08-18T22:40:07;6.03;;;5.45;;
36501;SDS011;25393;46.108;3.390;2022-08-18T22:42:36;5.88;;;5.40;;
36501;SDS011;25393;46.108;3.390;2022-08-18T22:45:05;6.22;;;5.82;;
36501;SDS011;25393;46.108;3.390;2022-08-18T22:47:34;6.32;;;5.82;;
36501;SDS011;25393;46.108;3.390;2022-08-18T22:50:15;9.07;;;6.18;;
36501;SDS011;25393;46.108;3.390;2022-08-18T22:52:45;8.40;;;5.88;;
36501;SDS011;25393;46.108;3.390;2022-08-18T22:55:15;5.93;;;5.45;;
36501;SDS011;25393;46.108;3.390;2022-08-18T22:57:49;7.03;;;5.30;;
36501;SDS011;25393;46.108;3.390;2022-08-18T23:00:21;5.78;;;5.35;;
36501;SDS011;25393;46.108;3.390;2022-08-18T23:02:50;6.60;;;5.90;;
36501;SDS011;25393;46.108;3.390;2022-08-18T23:05:17;8.43;;;5.13;;
36501;SDS011;25393;46.108;3.390;2022-08-18T23:07:46;5.28;;;4.88;;
36501;SDS011;25393;46.108;3.390;2022-08-18T23:10:16;6.85;;;5.40;;
36501;SDS011;25393;46.108;3.390;2022-08-18T23:12:43;5.40;;;5.00;;
36501;SDS011;25393;46.108;3.390;2022-08-18T23:15:12;4.95;;;4.55;;
36501;SDS011;25393;46.108;3.390;2022-08-18T23:17:41;7.07;;;5.28;;
36501;SDS011;25393;46.108;3.390;2022-08-18T23:20:10;8.00;;;5.13;;
36501;SDS011;25393;46.108;3.390;2022-08-18T23:22:43;5.32;;;4.90;;
36501;SDS011;25393;46.108;3.390;2022-08-18T23:25:11;8.68;;;5.00;;
36501;SDS011;25393;46.108;3.390;2022-08-18T23:27:38;5.55;;;5.05;;
36501;SDS011;25393;46.108;3.390;2022-08-18T23:30:06;5.28;;;4.88;;
36501;SDS011;25393;46.108;3.390;2022-08-18T23:32:34;5.40;;;5.00;;
36501;SDS011;25393;46.108;3.390;2022-08-18T23:35:02;6.32;;;5.05;;
36501;SDS011;25393;46.108;3.390;2022-08-18T23:37:29;6.03;;;5.53;;
36501;SDS011;25393;46.108;3.390;2022-08-18T23:39:57;5.57;;;5.10;;
36501;SDS011;25393;46.108;3.390;2022-08-18T23:42:24;5.90;;;5.28;;
36501;SDS011;25393;46.108;3.390;2022-08-18T23:44:52;5.60;;;5.20;;
36501;SDS011;25393;46.108;3.390;2022-08-18T23:47:19;5.55;;;5.15;;
36501;SDS011;25393;46.108;3.390;2022-08-18T23:49:48;6.78;;;5.20;;
36501;SDS011;25393;46.108;3.390;2022-08-18T23:52:16;5.88;;;5.47;;
36501;SDS011;25393;46.108;3.390;2022-08-18T23:54:43;9.52;;;5.70;;
36501;SDS011;25393;46.108;3.390;2022-08-18T23:57:10;7.65;;;5.82;;
36501;SDS011;25393;46.108;3.390;2022-08-18T23:59:37;5.93;;;5.53;;
